Time;durP1;ratioP1;P1;durP2;ratioP2;P2;SDS_P1;SDS_P2;PMS_P1;PMS_P2;Temp;Humidity;BMP_temperature;BMP_pressure;BME280_temperature;BME280_humidity;BME280_pressure;Samples;Min_cycle;Max_cycle;Signal;HPM_P1;HPM_P2
2022/01/02 00:08:06;;;;;;;7.45;4.28;;;6.80;90.40;;;;;;6194344;28;20089;-85
2022/01/02 00:11:31;;;;;;;13.27;4.38;;;6.80;90.50;;;;;;6222020;28;20037;-85
2022/01/02 00:14:36;;;;;;;9.50;5.13;;;6.80;90.40;;;;;;6221359;28;20057;-86
2022/01/02 00:17:39;;;;;;;13.40;5.72;;;6.80;90.40;;;;;;6278027;28;20040;-84
2022/01/02 00:20:47;;;;;;;14.40;4.50;;;6.80;90.50;;;;;;6294039;28;20075;-86
2022/01/02 00:23:59;;;;;;;14.13;5.38;;;6.70;90.40;;;;;;6294391;28;20049;-85
2022/01/02 00:27:01;;;;;;;9.48;5.07;;;6.60;90.40;;;;;;6294498;28;20029;-86
2022/01/02 00:30:05;;;;;;;8.20;4.50;;;6.60;90.50;;;;;;6293887;28;20049;-85
2022/01/02 00:33:09;;;;;;;10.80;5.60;;;6.50;90.70;;;;;;6291135;28;20075;-86
2022/01/02 00:36:10;;;;;;;11.73;4.80;;;6.50;90.60;;;;;;6291792;28;20076;-87
2022/01/02 00:39:14;;;;;;;9.77;5.47;;;6.40;90.60;;;;;;6292136;28;20045;-86
2022/01/02 00:42:25;;;;;;;9.48;5.50;;;6.40;90.70;;;;;;6292500;28;20049;-86
2022/01/02 00:45:29;;;;;;;10.30;4.72;;;6.30;90.60;;;;;;6292437;28;20052;-84
2022/01/02 00:48:39;;;;;;;14.05;5.60;;;6.30;90.70;;;;;;6291976;28;20029;-86
2022/01/02 00:51:47;;;;;;;13.15;5.18;;;6.30;90.70;;;;;;6293438;28;20072;-86
2022/01/02 00:54:52;;;;;;;9.73;5.03;;;6.20;90.70;;;;;;6293779;28;20087;-87
2022/01/02 00:57:57;;;;;;;11.85;5.18;;;6.20;90.70;;;;;;6291429;28;20108;-86
2022/01/02 01:01:02;;;;;;;12.95;5.43;;;6.20;90.70;;;;;;6291610;28;20113;-85
2022/01/02 01:04:07;;;;;;;6.75;4.72;;;6.20;90.70;;;;;;6286912;28;20144;-85
2022/01/02 01:07:09;;;;;;;11.73;5.75;;;6.20;90.60;;;;;;6294221;28;20048;-85
2022/01/02 01:10:12;;;;;;;12.73;4.82;;;6.20;90.60;;;;;;6297633;28;20049;-86
2022/01/02 01:13:15;;;;;;;10.85;5.15;;;6.10;90.50;;;;;;6298704;28;20048;-86
2022/01/02 01:16:20;;;;;;;7.80;4.18;;;6.10;90.60;;;;;;6298687;28;20044;-86
2022/01/02 01:19:23;;;;;;;10.88;5.05;;;6.00;90.60;;;;;;6300942;28;20060;-86
2022/01/02 01:22:27;;;;;;;10.93;5.30;;;5.80;90.60;;;;;;6301339;28;20074;-85
2022/01/02 01:25:30;;;;;;;12.45;5.55;;;5.70;90.60;;;;;;6299823;28;20143;-86
2022/01/02 01:28:32;;;;;;;20.58;4.90;;;5.60;90.70;;;;;;6299830;28;20052;-87
2022/01/02 01:31:34;;;;;;;11.60;6.10;;;5.60;90.80;;;;;;6300132;28;20067;-86
2022/01/02 01:34:36;;;;;;;18.75;5.53;;;5.60;91.10;;;;;;6295050;28;20080;-87
2022/01/02 01:37:39;;;;;;;9.55;4.95;;;5.50;90.80;;;;;;6292981;28;20100;-87
2022/01/02 01:40:50;;;;;;;9.48;4.82;;;5.50;90.80;;;;;;6293793;28;20033;-86
2022/01/02 01:44:05;;;;;;;10.35;5.25;;;5.40;90.90;;;;;;6295194;28;20136;-85
2022/01/02 01:47:07;;;;;;;11.60;6.13;;;5.40;91.00;;;;;;6289570;28;20075;-83
2022/01/02 01:50:09;;;;;;;12.05;5.35;;;5.40;91.00;;;;;;6286432;28;20048;-81
2022/01/02 01:53:11;;;;;;;11.77;4.82;;;5.40;91.00;;;;;;6285587;28;20065;-82
2022/01/02 01:56:14;;;;;;;11.52;5.70;;;5.50;91.00;;;;;;6284507;28;20045;-84
2022/01/02 01:59:16;;;;;;;17.55;6.85;;;5.50;90.90;;;;;;6277315;28;20055;-83
2022/01/02 02:02:18;;;;;;;12.25;5.35;;;5.60;91.00;;;;;;6275003;28;20502;-82
2022/01/02 02:05:20;;;;;;;18.92;5.50;;;5.60;91.00;;;;;;6275035;28;20049;-83
2022/01/02 02:08:25;;;;;;;59.22;8.77;;;5.60;90.90;;;;;;6279331;28;20502;-83
2022/01/02 02:11:29;;;;;;;19.17;6.50;;;5.70;90.90;;;;;;6276296;28;20498;-83
2022/01/02 02:14:33;;;;;;;35.60;8.98;;;5.70;90.90;;;;;;6275522;28;20045;-83
2022/01/02 02:17:35;;;;;;;54.45;9.77;;;5.80;90.90;;;;;;6275503;28;20041;-83
2022/01/02 02:20:38;;;;;;;41.55;8.45;;;5.80;90.80;;;;;;6275812;28;20053;-81
2022/01/02 02:23:55;;;;;;;110.25;12.20;;;5.90;90.90;;;;;;6279951;28;20044;-85
2022/01/02 02:27:45;;;;;;;49.90;8.40;;;6.00;90.90;;;;;;6301438;28;20114;-84
2022/01/02 02:30:49;;;;;;;;;;;6.10;90.90;;;;;;6300326;28;20067;-83
2022/01/02 02:33:57;;;;;;;36.88;8.18;;;6.10;90.90;;;;;;6296986;28;19921;-83
2022/01/02 02:37:04;;;;;;;;;;;6.10;90.90;;;;;;6295953;28;20111;-84
2022/01/02 02:40:07;;;;;;;68.32;9.18;;;6.10;90.90;;;;;;6293795;28;19927;-85
2022/01/02 02:43:24;;;;;;;34.03;7.20;;;6.10;90.80;;;;;;6296721;28;20160;-85
2022/01/02 02:49:53;;;;;;;13.10;5.97;;;6.00;91.00;;;;;;6294251;28;20048;-86
2022/01/02 03:12:42;;;;;;;12.65;6.07;;;5.50;91.10;;;;;;6098919;28;20509;-86
2022/01/02 03:15:44;;;;;;;12.90;6.05;;;5.40;91.10;;;;;;6273014;28;20064;-86
2022/01/02 03:18:45;;;;;;;15.98;5.78;;;5.50;91.20;;;;;;6296335;28;20556;-84
2022/01/02 03:21:47;;;;;;;14.57;6.57;;;5.50;91.20;;;;;;6289868;28;20136;-86
2022/01/02 03:24:49;;;;;;;15.52;6.88;;;5.50;91.20;;;;;;6293635;28;20053;-86
2022/01/02 03:27:52;;;;;;;13.02;6.15;;;5.60;91.20;;;;;;6289559;28;20105;-85
2022/01/02 03:30:54;;;;;;;15.77;6.18;;;5.60;91.20;;;;;;6289881;28;20132;-86
2022/01/02 03:33:56;;;;;;;18.55;6.53;;;5.70;91.20;;;;;;6289438;28;20044;-85
2022/01/02 03:36:58;;;;;;;14.00;5.90;;;5.80;91.20;;;;;;6288819;28;20056;-87
2022/01/02 03:40:01;;;;;;;13.07;6.22;;;5.90;91.20;;;;;;6293258;28;20130;-85
2022/01/02 03:43:05;;;;;;;16.85;6.78;;;5.80;91.00;;;;;;6296054;28;20048;-85
2022/01/02 03:46:06;;;;;;;11.40;5.13;;;5.80;90.90;;;;;;6286985;28;20044;-82
2022/01/02 03:52:51;;;;;;;12.40;5.95;;;5.80;90.90;;;;;;6284281;28;20045;-86
2022/01/02 03:55:54;;;;;;;12.80;5.50;;;5.80;90.90;;;;;;6294558;28;20068;-84
2022/01/02 03:58:57;;;;;;;11.68;5.80;;;5.80;91.10;;;;;;6293988;28;20102;-86
2022/01/02 04:01:59;;;;;;;8.77;4.65;;;5.70;90.80;;;;;;6296728;28;20052;-86
2022/01/02 04:05:01;;;;;;;12.75;4.55;;;5.70;91.10;;;;;;6297051;28;20064;-86
2022/01/02 04:08:04;;;;;;;11.38;5.50;;;5.80;90.90;;;;;;6292972;28;20496;-85
2022/01/02 04:11:05;;;;;;;15.98;4.40;;;5.80;90.80;;;;;;6292522;28;20542;-83
2022/01/02 04:14:09;;;;;;;17.58;7.60;;;5.80;90.70;;;;;;6291094;28;20065;-84
2022/01/02 04:17:10;;;;;;;12.40;5.00;;;5.80;90.90;;;;;;6296320;28;20044;-85
2022/01/02 04:20:14;;;;;;;19.48;5.78;;;5.80;91.00;;;;;;6295587;28;20068;-84
2022/01/02 04:23:16;;;;;;;13.43;5.15;;;5.90;91.00;;;;;;6295089;28;20045;-87
2022/01/02 04:26:18;;;;;;;7.35;4.75;;;6.00;91.00;;;;;;6291302;28;20045;-87
2022/01/02 04:29:21;;;;;;;13.75;5.88;;;6.10;90.90;;;;;;6294622;28;20048;-86
2022/01/02 04:32:23;;;;;;;9.30;4.70;;;6.10;90.90;;;;;;6294346;28;20065;-86
2022/01/02 04:35:25;;;;;;;11.13;5.13;;;6.20;90.80;;;;;;6294001;28;20052;-87
2022/01/02 04:38:26;;;;;;;7.05;3.85;;;6.30;90.70;;;;;;6293797;28;20109;-85
2022/01/02 04:41:28;;;;;;;11.20;4.50;;;6.30;90.40;;;;;;6299577;28;20089;-84
2022/01/02 04:44:32;;;;;;;8.10;4.03;;;6.20;90.50;;;;;;6304129;28;20037;-86
2022/01/02 04:47:34;;;;;;;7.05;4.38;;;6.10;90.60;;;;;;6296662;28;20078;-85
2022/01/02 04:50:36;;;;;;;19.30;5.03;;;6.10;90.60;;;;;;6303602;28;20117;-85
2022/01/02 04:53:48;;;;;;;11.93;4.22;;;6.10;90.60;;;;;;6303365;28;20057;-86
2022/01/02 04:56:53;;;;;;;13.25;5.25;;;6.10;90.60;;;;;;6303744;28;20067;-84
2022/01/02 05:00:00;;;;;;;8.18;4.03;;;6.20;90.60;;;;;;6302832;28;20132;-85
2022/01/02 05:10:01;;;;;;;10.18;5.45;;;6.20;90.50;;;;;;6297695;28;20134;-84
2022/01/02 05:13:11;;;;;;;10.60;4.53;;;6.20;90.50;;;;;;6284644;28;20061;-86
2022/01/02 05:16:14;;;;;;;10.23;5.00;;;6.20;90.40;;;;;;6285924;28;20049;-83
2022/01/02 05:19:25;;;;;;;14.10;4.78;;;6.20;90.40;;;;;;6287637;28;20120;-86
2022/01/02 05:22:29;;;;;;;9.88;4.63;;;6.20;90.50;;;;;;6276053;28;20065;-86
2022/01/02 05:25:31;;;;;;;9.52;4.82;;;6.20;90.50;;;;;;6289024;28;20045;-86
2022/01/02 05:28:33;;;;;;;7.85;4.57;;;6.20;90.50;;;;;;6288732;28;20060;-86
2022/01/02 05:31:36;;;;;;;10.27;4.40;;;6.10;90.50;;;;;;6302160;22;20220;-79
2022/01/02 05:34:38;;;;;;;8.63;4.57;;;6.10;90.60;;;;;;6257562;28;20470;-79
2022/01/02 05:37:40;;;;;;;8.38;4.00;;;6.20;90.60;;;;;;6258387;28;20068;-79
2022/01/02 05:40:41;;;;;;;10.80;4.75;;;6.20;90.50;;;;;;6256462;28;20080;-79
2022/01/02 05:43:43;;;;;;;7.07;3.28;;;6.20;90.50;;;;;;6256680;28;20057;-78
2022/01/02 05:46:47;;;;;;;9.10;4.70;;;6.20;90.50;;;;;;6258147;28;20486;-79
2022/01/02 05:49:49;;;;;;;7.40;4.22;;;6.20;90.50;;;;;;6257121;28;20041;-79
2022/01/02 05:52:51;;;;;;;10.73;4.82;;;6.20;90.40;;;;;;6256741;28;20527;-79
2022/01/02 05:55:53;;;;;;;10.35;3.88;;;6.10;90.30;;;;;;6256653;28;20117;-78
2022/01/02 05:58:55;;;;;;;9.60;3.97;;;6.10;90.50;;;;;;6256982;28;20505;-78
2022/01/02 06:01:58;;;;;;;11.18;5.60;;;6.10;90.70;;;;;;6256801;28;20422;-80
2022/01/02 06:05:00;;;;;;;8.45;4.40;;;6.10;90.70;;;;;;6256426;28;20046;-79
2022/01/02 06:08:03;;;;;;;15.13;4.65;;;6.20;90.60;;;;;;6257361;28;20045;-79
2022/01/02 06:11:05;;;;;;;10.20;4.55;;;6.30;90.50;;;;;;6256976;28;20634;-79
2022/01/02 06:14:06;;;;;;;9.75;5.00;;;6.20;90.50;;;;;;6256197;28;20050;-79
2022/01/02 06:17:10;;;;;;;6.82;3.25;;;6.20;90.40;;;;;;6256259;28;20080;-79
2022/01/02 06:20:11;;;;;;;6.10;3.90;;;6.20;90.50;;;;;;6255927;28;20100;-79
2022/01/02 06:23:13;;;;;;;9.55;4.38;;;6.20;90.60;;;;;;6256408;28;20045;-80
2022/01/02 06:26:15;;;;;;;9.40;4.13;;;6.20;90.60;;;;;;6255761;28;20132;-79
2022/01/02 06:29:17;;;;;;;8.35;3.72;;;6.20;90.60;;;;;;6255595;28;20045;-80
2022/01/02 06:32:20;;;;;;;10.85;4.57;;;6.30;90.60;;;;;;6255321;28;20101;-79
2022/01/02 06:35:24;;;;;;;7.97;4.90;;;6.30;90.60;;;;;;6256317;28;20630;-79
2022/01/02 06:38:25;;;;;;;10.02;5.30;;;6.40;90.60;;;;;;6255325;28;20046;-79
2022/01/02 06:41:27;;;;;;;9.95;5.15;;;6.50;90.60;;;;;;6255417;28;20052;-79
2022/01/02 06:44:29;;;;;;;6.35;4.00;;;6.60;90.50;;;;;;6255411;28;20056;-79
2022/01/02 06:47:32;;;;;;;9.55;4.40;;;6.60;90.40;;;;;;6256294;28;20050;-79
2022/01/02 06:50:34;;;;;;;6.15;3.25;;;6.60;90.40;;;;;;6255258;28;20045;-80
2022/01/02 06:53:36;;;;;;;11.48;5.18;;;6.60;90.30;;;;;;6255676;28;20045;-79
2022/01/02 06:56:38;;;;;;;7.85;4.38;;;6.50;90.30;;;;;;6255117;28;20048;-79
2022/01/02 06:59:41;;;;;;;9.45;3.90;;;6.50;90.30;;;;;;6256166;28;20053;-79
2022/01/02 07:02:44;;;;;;;8.57;3.60;;;6.50;90.40;;;;;;6256145;28;20053;-79
2022/01/02 07:05:46;;;;;;;7.80;4.53;;;6.50;90.40;;;;;;6254951;28;20191;-79
2022/01/02 07:08:48;;;;;;;6.40;3.85;;;6.40;90.40;;;;;;6254470;28;20506;-78
2022/01/02 07:11:49;;;;;;;12.25;4.82;;;6.40;90.40;;;;;;6255177;28;20112;-78
2022/01/02 07:14:51;;;;;;;9.65;3.42;;;6.40;90.50;;;;;;6254619;28;20136;-80
2022/01/02 07:17:54;;;;;;;5.28;3.50;;;6.30;90.50;;;;;;6253822;28;20392;-80
2022/01/02 07:20:56;;;;;;;9.55;4.10;;;6.30;90.50;;;;;;6254185;28;20045;-80
2022/01/02 07:23:58;;;;;;;7.63;3.63;;;6.30;90.50;;;;;;6254218;28;20522;-79
2022/01/02 07:27:01;;;;;;;7.97;3.88;;;6.20;90.50;;;;;;6254901;28;20060;-80
2022/01/02 07:30:03;;;;;;;7.35;4.38;;;6.20;90.50;;;;;;6254348;28;20064;-79
2022/01/02 07:33:06;;;;;;;11.73;4.60;;;6.20;90.60;;;;;;6254501;28;20050;-80
2022/01/02 07:36:08;;;;;;;9.60;4.10;;;6.20;90.50;;;;;;6254481;28;20531;-79
2022/01/02 07:39:10;;;;;;;9.30;3.88;;;6.20;90.50;;;;;;6255247;28;20523;-80
2022/01/02 07:42:12;;;;;;;17.23;6.07;;;6.20;90.50;;;;;;6253616;28;20053;-80
2022/01/02 07:45:14;;;;;;;8.95;4.13;;;6.20;90.50;;;;;;6253411;28;20045;-79
2022/01/02 07:48:17;;;;;;;7.15;3.67;;;6.20;90.50;;;;;;6253263;28;20120;-80
2022/01/02 07:51:19;;;;;;;13.45;4.93;;;6.20;90.50;;;;;;6253620;28;20049;-80
2022/01/02 07:54:20;;;;;;;11.88;4.47;;;6.20;90.50;;;;;;6253503;28;20060;-80
2022/01/02 07:57:22;;;;;;;12.95;5.28;;;6.30;90.60;;;;;;6253631;28;20417;-80
2022/01/02 08:00:24;;;;;;;10.30;5.30;;;6.30;90.60;;;;;;6254462;28;20048;-80
2022/01/02 08:03:27;;;;;;;10.02;4.63;;;6.50;90.70;;;;;;6254378;28;20191;-81
2022/01/02 08:06:29;;;;;;;17.13;5.88;;;6.60;90.60;;;;;;6254093;28;20124;-80
2022/01/02 08:09:30;;;;;;;10.00;4.70;;;6.70;90.60;;;;;;6253010;28;20059;-81
2022/01/02 08:12:32;;;;;;;12.20;4.78;;;6.80;90.50;;;;;;6253916;28;20046;-80
2022/01/02 08:15:34;;;;;;;9.85;4.90;;;6.90;90.70;;;;;;6253651;28;20056;-80
2022/01/02 08:18:37;;;;;;;10.27;5.70;;;7.00;90.60;;;;;;6254076;28;20157;-80
2022/01/02 08:21:39;;;;;;;16.73;6.78;;;7.00;90.80;;;;;;6253214;28;20590;-80
2022/01/02 08:24:41;;;;;;;15.10;6.22;;;7.20;91.10;;;;;;6252422;28;20053;-80
2022/01/02 08:27:43;;;;;;;20.92;8.48;;;7.30;91.20;;;;;;6255705;28;20045;-80
2022/01/02 08:30:45;;;;;;;15.02;7.65;;;7.50;91.30;;;;;;6255812;28;20132;-80
2022/01/02 08:33:48;;;;;;;19.42;10.30;;;7.50;91.50;;;;;;6254306;28;20097;-80
2022/01/02 08:36:49;;;;;;;23.83;8.60;;;7.60;91.60;;;;;;6253303;28;20050;-80
2022/01/02 08:39:51;;;;;;;19.42;10.15;;;7.80;91.80;;;;;;6252643;28;20056;-80
2022/01/02 08:42:53;;;;;;;26.90;11.45;;;8.00;91.60;;;;;;6253664;28;20065;-78
2022/01/02 08:45:55;;;;;;;26.92;10.60;;;8.20;91.50;;;;;;6252929;28;20128;-80
2022/01/02 08:48:58;;;;;;;21.85;10.65;;;8.40;91.40;;;;;;6254716;28;20051;-80
2022/01/02 08:52:00;;;;;;;25.77;9.40;;;8.60;91.30;;;;;;6254558;28;20112;-79
2022/01/02 08:55:02;;;;;;;22.50;9.57;;;8.80;91.20;;;;;;6256448;28;20057;-78
2022/01/02 08:58:04;;;;;;;19.00;8.88;;;9.10;90.90;;;;;;6255775;28;20547;-80
2022/01/02 09:01:05;;;;;;;22.35;9.85;;;9.20;90.70;;;;;;6250928;28;20064;-79
2022/01/02 09:04:09;;;;;;;14.65;7.88;;;9.40;90.40;;;;;;6227647;28;20097;-81
2022/01/02 09:07:10;;;;;;;16.67;8.75;;;9.40;90.20;;;;;;6226070;28;20137;-78
2022/01/02 09:10:14;;;;;;;22.58;12.38;;;9.40;90.20;;;;;;6225799;28;20049;-77
2022/01/02 09:13:15;;;;;;;17.55;9.15;;;9.50;89.90;;;;;;6224921;28;20400;-78
2022/01/02 09:16:17;;;;;;;14.98;7.80;;;9.60;89.40;;;;;;6224890;28;20050;-78
2022/01/02 09:19:20;;;;;;;21.42;8.43;;;9.80;89.10;;;;;;6225880;28;20056;-77
2022/01/02 09:22:22;;;;;;;17.05;8.43;;;9.90;88.40;;;;;;6225511;28;20085;-79
2022/01/02 09:25:24;;;;;;;16.25;8.13;;;10.20;88.40;;;;;;6225767;28;20038;-78
2022/01/02 09:28:26;;;;;;;14.07;6.47;;;10.50;87.00;;;;;;6225091;28;20046;-78
2022/01/02 09:31:27;;;;;;;12.40;7.30;;;10.70;86.20;;;;;;6228506;28;20400;-78
2022/01/02 09:34:30;;;;;;;12.00;6.70;;;10.80;85.50;;;;;;6229904;28;20042;-77
2022/01/02 09:37:34;;;;;;;14.38;7.15;;;10.80;84.90;;;;;;6229301;28;20503;-78
2022/01/02 09:40:36;;;;;;;17.70;7.40;;;10.90;85.10;;;;;;6228194;28;20097;-77
2022/01/02 09:43:37;;;;;;;13.27;7.00;;;10.80;85.20;;;;;;6225714;28;20117;-77
2022/01/02 09:46:41;;;;;;;10.85;6.78;;;10.70;84.20;;;;;;6225341;28;20064;-77
2022/01/02 09:49:44;;;;;;;12.55;7.32;;;10.50;84.40;;;;;;6224831;28;20044;-77
2022/01/02 09:52:46;;;;;;;13.77;7.75;;;10.30;84.70;;;;;;6225153;28;20157;-77
2022/01/02 09:55:48;;;;;;;14.18;6.68;;;10.00;85.60;;;;;;6226502;28;20137;-77
2022/01/02 09:58:50;;;;;;;19.73;8.63;;;10.10;86.30;;;;;;6226281;28;20050;-78
2022/01/02 10:01:51;;;;;;;14.80;7.40;;;10.10;86.30;;;;;;6225239;28;20151;-78
2022/01/02 10:05:03;;;;;;;14.45;6.50;;;10.10;86.30;;;;;;6225565;28;20052;-77
2022/01/02 10:08:21;;;;;;;7.63;4.97;;;10.20;86.30;;;;;;6225369;28;20065;-79
2022/01/02 10:11:24;;;;;;;12.45;6.47;;;10.10;86.30;;;;;;6225233;28;20511;-78
2022/01/02 10:14:26;;;;;;;14.60;7.35;;;10.10;86.60;;;;;;6225012;28;20054;-78
2022/01/02 10:17:28;;;;;;;15.13;7.93;;;10.10;86.60;;;;;;6224821;28;20056;-78
2022/01/02 10:20:34;;;;;;;11.05;6.18;;;10.20;86.70;;;;;;6224668;28;20438;-77
2022/01/02 10:23:36;;;;;;;11.93;6.85;;;10.30;86.40;;;;;;6225441;28;20060;-76
2022/01/02 10:26:37;;;;;;;11.48;5.93;;;10.40;85.80;;;;;;6225102;28;20172;-78
2022/01/02 10:29:42;;;;;;;10.23;6.15;;;10.40;85.60;;;;;;6224526;28;20034;-77
2022/01/02 10:32:44;;;;;;;12.05;6.10;;;10.50;85.70;;;;;;6224520;28;20045;-77
2022/01/02 10:35:47;;;;;;;12.45;6.22;;;10.50;85.50;;;;;;6224581;28;20054;-77
2022/01/02 10:39:18;;;;;;;12.75;6.43;;;10.40;85.10;;;;;;6225577;28;20052;-77
2022/01/02 10:42:21;;;;;;;12.30;6.35;;;10.30;85.60;;;;;;6175945;28;20575;-78
2022/01/02 10:45:35;;;;;;;12.43;6.20;;;10.20;86.00;;;;;;6224671;28;20445;-77
2022/01/02 10:48:39;;;;;;;16.13;7.85;;;10.20;86.40;;;;;;6225442;28;20129;-77
2022/01/02 10:51:42;;;;;;;13.20;6.22;;;10.30;86.60;;;;;;6224956;28;20046;-77
2022/01/02 10:54:43;;;;;;;10.30;4.78;;;10.70;86.70;;;;;;6225410;28;20082;-77
2022/01/02 10:57:49;;;;;;;10.80;5.18;;;11.40;84.60;;;;;;6224837;28;20105;-77
2022/01/02 11:00:51;;;;;;;9.30;5.07;;;11.90;82.70;;;;;;6224769;28;20046;-77
2022/01/02 11:03:55;;;;;;;7.18;4.65;;;12.30;80.80;;;;;;6224157;28;20108;-77
2022/01/02 11:07:00;;;;;;;15.82;7.47;;;12.40;79.70;;;;;;6224890;28;20565;-81
2022/01/02 11:10:02;;;;;;;12.73;6.32;;;12.40;78.60;;;;;;6230260;28;20054;-80
2022/01/02 11:13:05;;;;;;;13.48;8.85;;;12.50;78.50;;;;;;6231019;28;20042;-81
2022/01/02 11:16:07;;;;;;;5.82;4.28;;;12.50;78.00;;;;;;6243067;28;20041;-80
2022/01/02 11:19:11;;;;;;;9.35;5.47;;;12.60;77.80;;;;;;6238943;28;20425;-81
2022/01/02 11:22:22;;;;;;;4.82;2.90;;;12.60;77.20;;;;;;6247290;28;20053;-78
2022/01/02 11:25:29;;;;;;;9.40;3.70;;;12.50;77.10;;;;;;6243801;28;20411;-82
2022/01/02 11:28:41;;;;;;;7.22;3.70;;;12.30;77.10;;;;;;6254191;28;20045;-79
2022/01/02 11:31:45;;;;;;;6.47;3.67;;;12.30;77.40;;;;;;6255252;28;20060;-81
2022/01/02 11:34:46;;;;;;;14.18;4.05;;;12.40;77.00;;;;;;6249809;28;20080;-80
2022/01/02 11:37:56;;;;;;;7.63;3.40;;;12.40;76.20;;;;;;6245810;28;20082;-76
2022/01/02 11:41:01;;;;;;;5.40;3.15;;;12.40;76.60;;;;;;6260291;23;20414;-84
2022/01/02 11:44:04;;;;;;;7.85;3.95;;;12.40;77.10;;;;;;6228433;28;20411;-84
2022/01/02 11:47:06;;;;;;;6.63;3.22;;;12.60;75.60;;;;;;6233256;28;20380;-82
2022/01/02 11:50:41;;;;;;;8.00;3.10;;;12.70;75.80;;;;;;6225192;28;20041;-82
2022/01/02 11:53:53;;;;;;;7.13;3.20;;;13.10;75.20;;;;;;6224891;28;20060;-81
2022/01/02 11:56:55;;;;;;;4.80;2.97;;;13.80;74.90;;;;;;6236031;28;20063;-83
2022/01/02 11:59:58;;;;;;;5.35;2.55;;;14.30;73.50;;;;;;6250966;28;20104;-82
2022/01/02 12:03:00;;;;;;;4.63;2.28;;;14.80;74.20;;;;;;6249963;28;20068;-82
2022/01/02 12:06:17;;;;;;;5.22;2.45;;;15.20;69.70;;;;;;6249191;28;20069;-81
2022/01/02 12:09:37;;;;;;;3.55;1.80;;;15.60;66.60;;;;;;6249120;28;20120;-80
2022/01/02 12:13:16;;;;;;;3.03;1.10;;;15.80;64.50;;;;;;6249527;28;20057;-79
2022/01/02 12:16:18;;;;;;;5.10;1.67;;;16.20;64.40;;;;;;6249060;28;20415;-80
2022/01/02 12:19:20;;;;;;;3.50;1.30;;;16.70;63.10;;;;;;6242962;28;20176;-84
2022/01/02 12:22:22;;;;;;;2.67;1.20;;;17.10;61.50;;;;;;6250113;28;20055;-80
2022/01/02 12:25:25;;;;;;;2.40;1.25;;;17.40;59.60;;;;;;6248937;28;20105;-80
2022/01/02 12:28:29;;;;;;;1.40;0.60;;;17.60;56.50;;;;;;6250364;28;20053;-82
2022/01/02 12:31:33;;;;;;;3.53;1.45;;;17.50;54.80;;;;;;6251236;28;20056;-81
2022/01/02 12:34:36;;;;;;;2.78;0.93;;;17.40;54.10;;;;;;6213613;28;20101;-80
2022/01/02 12:37:38;;;;;;;2.92;1.05;;;17.20;54.40;;;;;;6242747;28;20053;-82
2022/01/02 12:40:41;;;;;;;2.92;0.90;;;17.10;54.20;;;;;;6238527;28;20046;-82
2022/01/02 12:43:51;;;;;;;4.78;1.02;;;17.00;54.40;;;;;;6233473;28;20196;-82
2022/01/02 12:46:57;;;;;;;2.80;1.00;;;16.90;54.50;;;;;;6258028;28;20094;-81
2022/01/02 12:49:59;;;;;;;4.47;1.10;;;16.70;54.00;;;;;;6267037;28;20041;-82
2022/01/02 12:53:05;;;;;;;8.02;4.38;;;16.60;54.60;;;;;;6275245;28;20045;-81
2022/01/02 12:56:08;;;;;;;5.35;2.53;;;16.70;54.70;;;;;;6275668;28;20430;-81
2022/01/02 12:59:23;;;;;;;3.28;1.23;;;16.70;54.90;;;;;;6275183;28;20064;-81
2022/01/02 13:02:25;;;;;;;3.53;0.93;;;16.70;55.60;;;;;;6275288;28;20040;-81
2022/01/02 13:05:28;;;;;;;7.57;1.23;;;16.70;56.10;;;;;;6277081;28;20044;-83
2022/01/02 13:08:29;;;;;;;2.30;0.98;;;16.70;56.20;;;;;;6279591;28;20091;-82
2022/01/02 13:11:36;;;;;;;2.47;1.17;;;16.70;56.70;;;;;;6281190;28;20132;-82
2022/01/02 13:14:43;;;;;;;2.17;1.20;;;16.70;56.40;;;;;;6280319;28;20052;-83
2022/01/02 13:17:50;;;;;;;4.18;1.38;;;16.80;56.50;;;;;;6274047;28;20056;-82
2022/01/02 13:20:52;;;;;;;4.40;1.73;;;16.80;56.20;;;;;;6275107;28;20140;-81
2022/01/02 13:23:54;;;;;;;5.80;4.47;;;16.90;55.60;;;;;;6278825;28;20053;-81
2022/01/02 13:26:58;;;;;;;3.50;2.20;;;16.80;56.00;;;;;;6279184;28;20064;-81
2022/01/02 13:30:02;;;;;;;3.35;1.40;;;16.80;55.40;;;;;;6268610;28;20045;-82
2022/01/02 13:33:04;;;;;;;3.40;1.58;;;16.70;55.70;;;;;;6255590;28;20048;-80
2022/01/02 13:36:10;;;;;;;3.58;1.35;;;16.70;56.80;;;;;;6263882;28;20049;-81
2022/01/02 13:39:12;;;;;;;3.58;1.65;;;16.70;57.40;;;;;;6279688;28;20059;-82
2022/01/02 13:42:18;;;;;;;6.40;2.78;;;16.50;57.50;;;;;;6280155;28;20071;-80
2022/01/02 13:45:24;;;;;;;4.90;2.40;;;16.30;58.10;;;;;;6279593;28;20514;-81
2022/01/02 13:48:29;;;;;;;3.67;1.90;;;16.00;58.60;;;;;;6269623;28;20053;-81
2022/01/02 13:51:32;;;;;;;3.88;2.05;;;15.90;59.00;;;;;;6254014;28;20413;-84
2022/01/02 13:54:33;;;;;;;3.85;1.95;;;15.70;58.70;;;;;;6254076;28;20053;-81
2022/01/02 13:57:37;;;;;;;4.10;1.95;;;15.60;58.90;;;;;;6252919;28;20065;-80
2022/01/02 14:00:46;;;;;;;4.35;1.80;;;15.70;59.10;;;;;;6254442;28;20053;-79
2022/01/02 14:03:48;;;;;;;3.45;1.90;;;15.70;59.10;;;;;;6254312;28;20049;-81
2022/01/02 14:06:49;;;;;;;6.38;1.58;;;15.70;58.50;;;;;;6253759;28;20136;-82
2022/01/02 14:09:52;;;;;;;4.95;1.70;;;15.60;58.70;;;;;;6252921;28;20049;-81
2022/01/02 14:12:58;;;;;;;3.15;1.90;;;15.50;59.30;;;;;;6252134;28;20392;-80
2022/01/02 14:16:02;;;;;;;5.63;1.98;;;15.40;59.60;;;;;;6251508;28;20041;-81
2022/01/02 14:19:05;;;;;;;6.43;2.42;;;15.40;59.90;;;;;;6270769;28;20422;-80
2022/01/02 14:22:07;;;;;;;4.05;2.10;;;15.40;60.00;;;;;;6265498;28;20049;-80
2022/01/02 14:25:10;;;;;;;2.65;1.25;;;15.30;60.00;;;;;;6276719;28;20071;-79
2022/01/02 14:28:18;;;;;;;3.03;1.40;;;15.30;60.10;;;;;;6278400;28;20041;-83
2022/01/02 14:31:19;;;;;;;4.25;1.88;;;15.30;60.40;;;;;;6279997;28;20132;-82
2022/01/02 14:34:21;;;;;;;5.88;2.03;;;15.20;60.50;;;;;;6279176;28;20502;-82
2022/01/02 14:37:24;;;;;;;9.40;4.80;;;15.10;61.00;;;;;;6273913;28;20063;-79
2022/01/02 14:40:25;;;;;;;16.90;8.30;;;14.90;61.60;;;;;;6280309;28;20458;-80
2022/01/02 14:43:29;;;;;;;21.13;12.25;;;14.70;62.40;;;;;;6281522;28;20075;-80
2022/01/02 14:46:30;;;;;;;24.50;11.18;;;14.60;63.10;;;;;;6280529;28;20554;-80
2022/01/02 14:49:33;;;;;;;5.60;2.67;;;14.40;63.80;;;;;;6262658;28;20050;-83
2022/01/02 14:52:36;;;;;;;108.07;42.38;;;14.20;64.50;;;;;;6255347;28;20473;-79
2022/01/02 14:55:38;;;;;;;65.25;23.88;;;14.00;65.10;;;;;;6255026;28;20049;-81
2022/01/02 14:58:41;;;;;;;49.28;19.23;;;13.90;65.90;;;;;;6255722;28;20049;-80
2022/01/02 15:01:43;;;;;;;122.72;45.10;;;13.70;66.50;;;;;;6255666;28;20128;-80
2022/01/02 15:04:45;;;;;;;118.43;45.25;;;13.70;67.10;;;;;;6270703;28;20115;-79
2022/01/02 15:07:47;;;;;;;11.50;4.97;;;13.50;67.80;;;;;;6259018;28;20096;-77
2022/01/02 15:10:49;;;;;;;11.25;4.25;;;13.40;68.20;;;;;;6255931;28;20046;-80
2022/01/02 15:13:52;;;;;;;20.35;7.55;;;13.40;68.50;;;;;;6254633;28;20076;-79
2022/01/02 15:16:53;;;;;;;20.02;7.40;;;13.20;68.90;;;;;;6262518;28;20045;-79
2022/01/02 15:19:55;;;;;;;23.48;9.93;;;13.20;69.30;;;;;;6271197;28;20548;-80
2022/01/02 15:22:57;;;;;;;17.92;6.95;;;13.10;69.60;;;;;;6279760;28;20048;-83
2022/01/02 15:26:04;;;;;;;7.97;3.67;;;13.10;69.90;;;;;;6279374;28;20537;-79
2022/01/02 15:29:08;;;;;;;8.93;3.17;;;13.00;69.90;;;;;;6278596;28;20053;-80
2022/01/02 15:32:10;;;;;;;3.78;2.08;;;13.00;70.10;;;;;;6279540;28;20071;-83
2022/01/02 15:35:15;;;;;;;22.60;8.60;;;13.00;70.30;;;;;;6279692;28;20139;-82
2022/01/02 15:38:17;;;;;;;5.07;2.67;;;12.90;70.50;;;;;;6263190;28;20045;-82
2022/01/02 15:41:19;;;;;;;8.82;4.55;;;12.80;70.60;;;;;;6278318;28;20100;-83
2022/01/02 15:44:23;;;;;;;8.15;4.55;;;12.80;70.80;;;;;;6279863;28;20049;-83
2022/01/02 15:47:24;;;;;;;15.23;6.63;;;12.80;71.10;;;;;;6282083;28;20045;-79
2022/01/02 15:50:26;;;;;;;6.47;3.53;;;12.70;71.40;;;;;;6259590;28;20053;-83
2022/01/02 15:53:29;;;;;;;10.18;4.72;;;12.60;71.60;;;;;;6253255;28;20047;-83
2022/01/02 15:56:31;;;;;;;7.70;3.10;;;12.60;72.10;;;;;;6252285;28;20056;-82
2022/01/02 15:59:34;;;;;;;5.05;2.60;;;12.50;72.50;;;;;;6250798;28;20139;-79
2022/01/02 16:02:36;;;;;;;5.90;3.25;;;12.50;72.70;;;;;;6268002;28;20072;-81
2022/01/02 16:05:38;;;;;;;5.93;3.15;;;12.40;72.90;;;;;;6273512;28;20045;-81
2022/01/02 16:08:40;;;;;;;7.18;2.40;;;12.40;73.30;;;;;;6273848;28;20045;-81
2022/01/02 16:11:42;;;;;;;4.72;2.55;;;12.30;73.70;;;;;;6249464;28;20053;-81
2022/01/02 16:14:45;;;;;;;6.05;2.20;;;12.10;74.00;;;;;;6250023;28;20222;-80
2022/01/02 16:17:46;;;;;;;5.18;2.28;;;12.10;74.30;;;;;;6265279;28;20041;-83
2022/01/02 16:20:48;;;;;;;4.82;2.38;;;12.10;74.50;;;;;;6253963;28;20049;-85
2022/01/02 16:23:53;;;;;;;4.03;2.22;;;12.00;74.80;;;;;;6248964;28;20056;-79
2022/01/02 16:26:55;;;;;;;7.53;2.78;;;12.00;75.20;;;;;;6253758;28;20418;-81
2022/01/02 16:29:58;;;;;;;6.80;3.40;;;11.90;75.40;;;;;;6263861;28;20066;-81
2022/01/02 16:33:00;;;;;;;5.47;2.38;;;11.80;75.50;;;;;;6272015;28;20045;-82
2022/01/02 16:36:01;;;;;;;5.78;2.45;;;11.90;76.10;;;;;;6265311;28;20067;-82
2022/01/02 16:39:06;;;;;;;7.50;2.58;;;11.80;76.50;;;;;;6272669;28;20483;-83